Time;durP1;ratioP1;P1;durP2;ratioP2;P2;SDS_P1;SDS_P2;PMS_P1;PMS_P2;Temp;Humidity;BMP_temperature;BMP_pressure;BME280_temperature;BME280_humidity;BME280_pressure;Samples;Min_cycle;Max_cycle;Signal;HPM_P1;HPM_P2
2023/03/12 00:01:15;;;;;;;5.30;4.30;;;;;;;21.22;40.98;97477.20;108072;1256;72854;-66
2023/03/12 00:03:43;;;;;;;7.60;5.70;;;;;;;21.36;40.52;97482.65;108053;1255;61433;-65
2023/03/12 00:06:12;;;;;;;6.10;4.80;;;;;;;21.11;40.92;97483.48;108054;1253;60163;-65
2023/03/12 00:08:46;;;;;;;5.00;4.30;;;;;;;21.24;40.45;97480.09;108049;1256;75087;-65
2023/03/12 00:11:16;;;;;;;7.20;5.30;;;;;;;21.19;40.39;97483.94;108065;1254;70456;-67
2023/03/12 00:13:48;;;;;;;6.70;4.90;;;;;;;21.25;39.89;97483.06;108057;1258;73137;-65
2023/03/12 00:16:16;;;;;;;6.70;4.90;;;;;;;20.55;41.10;97488.88;107989;1254;61605;-65
2023/03/12 00:18:46;;;;;;;8.10;6.20;;;;;;;20.64;41.02;97499.08;108086;1254;61067;-66
2023/03/12 00:21:15;;;;;;;8.30;6.20;;;;;;;21.09;40.09;97508.48;108034;1255;74828;-66
2023/03/12 00:23:43;;;;;;;9.60;6.40;;;;;;;21.03;40.16;97510.38;108059;1256;69519;-67
2023/03/12 00:26:12;;;;;;;9.70;6.30;;;;;;;20.77;40.49;97510.95;108024;1257;72325;-65
2023/03/12 00:28:41;;;;;;;11.60;7.50;;;;;;;20.90;40.26;97514.94;108230;1253;61926;-66
2023/03/12 00:31:26;;;;;;;11.20;8.20;;;;;;;21.04;39.88;97512.21;108185;1254;60548;-65
2023/03/12 00:33:59;;;;;;;9.80;7.70;;;;;;;20.51;40.34;97512.64;108128;1253;74857;-64
2023/03/12 00:36:28;;;;;;;10.10;7.70;;;;;;;20.51;40.40;97510.34;108100;1255;71235;-66
2023/03/12 00:39:02;;;;;;;11.20;7.90;;;;;;;20.22;40.87;97510.69;108027;1253;71593;-67
2023/03/12 00:41:31;;;;;;;11.10;8.50;;;;;;;20.43;40.50;97503.17;108165;1253;62166;-66
2023/03/12 00:43:59;;;;;;;10.90;7.70;;;;;;;20.02;41.07;97499.79;108138;1253;61261;-66
2023/03/12 00:46:27;;;;;;;9.80;7.70;;;;;;;20.04;41.01;97510.73;108118;1253;73155;-65
2023/03/12 00:48:55;;;;;;;9.70;6.60;;;;;;;19.98;41.04;97512.56;108115;1254;69494;-66
2023/03/12 00:51:23;;;;;;;10.70;7.40;;;;;;;19.60;41.96;97512.45;108221;1254;73484;-67
2023/03/12 00:53:52;;;;;;;11.80;8.80;;;;;;;19.71;41.65;97511.02;108190;1257;60316;-68
2023/03/12 00:56:20;;;;;;;10.60;7.90;;;;;;;20.00;41.14;97512.95;108109;1253;60645;-66
2023/03/12 00:58:48;;;;;;;14.70;8.10;;;;;;;19.80;41.42;97504.77;108216;1254;74938;-66
2023/03/12 01:01:16;;;;;;;10.90;8.20;;;;;;;19.86;41.20;97504.84;108203;1254;71307;-68
2023/03/12 01:03:45;;;;;;;9.10;7.00;;;;;;;20.21;40.73;97500.83;108265;1256;73901;-66
2023/03/12 01:06:13;;;;;;;6.50;5.30;;;;;;;20.40;40.17;97495.81;108184;1253;60877;-66
2023/03/12 01:08:42;;;;;;;6.80;4.90;;;;;;;20.21;40.31;97500.23;108229;1254;60333;-65
2023/03/12 01:11:18;;;;;;;6.70;4.60;;;;;;;19.52;41.18;97504.87;108173;1254;75106;-66
2023/03/12 01:13:46;;;;;;;4.50;3.80;;;;;;;19.12;41.79;97510.30;108176;1253;71101;-65
2023/03/12 01:16:14;;;;;;;4.70;3.80;;;;;;;19.81;40.77;97503.33;108180;1254;72553;-67
2023/03/12 01:18:42;;;;;;;5.30;4.00;;;;;;;19.68;40.81;97506.00;108136;1252;62141;-66
2023/03/12 01:21:10;;;;;;;4.60;3.40;;;;;;;19.93;40.40;97510.65;108126;1253;61355;-65
2023/03/12 01:23:38;;;;;;;4.40;3.60;;;;;;;20.15;39.97;97510.65;108238;1253;74594;-65
2023/03/12 01:26:06;;;;;;;6.10;3.80;;;;;;;20.19;39.72;97511.89;108249;1255;71633;-65
2023/03/12 01:28:34;;;;;;;6.10;4.00;;;;;;;19.75;40.41;97518.70;108219;1254;73694;-65
2023/03/12 01:31:10;;;;;;;6.30;5.00;;;;;;;19.48;40.93;97522.77;108178;1253;61175;-64
2023/03/12 01:33:39;;;;;;;4.50;3.40;;;;;;;19.76;40.32;97525.36;108227;1255;60324;-65
2023/03/12 01:36:28;;;;;;;3.50;2.20;;;;;;;19.73;40.11;97542.10;108200;1253;74844;-67
2023/03/12 01:38:57;;;;;;;4.30;3.30;;;;;;;19.38;40.66;97548.25;108296;1255;70607;-65
2023/03/12 01:41:28;;;;;;;4.70;2.30;;;;;;;19.44;40.23;97550.05;108233;1256;73885;-65
2023/03/12 01:43:56;;;;;;;3.10;2.30;;;;;;;19.57;40.19;97560.32;108359;1255;62158;-66
2023/03/12 01:46:34;;;;;;;2.60;2.20;;;;;;;19.43;40.14;97562.42;108248;1254;60111;-67
2023/03/12 01:49:18;;;;;;;2.40;1.90;;;;;;;19.78;39.19;97566.95;108198;1254;73457;-66
2023/03/12 01:52:00;;;;;;;2.40;1.90;;;;;;;19.76;39.30;97577.38;108260;1254;70424;-66
2023/03/12 01:54:48;;;;;;;4.00;2.10;;;;;;;19.55;39.29;97586.85;108157;1254;70570;-66
2023/03/12 01:57:19;;;;;;;2.10;1.80;;;;;;;19.01;40.22;97592.44;108278;1257;61253;-65
2023/03/12 01:59:54;;;;;;;2.50;2.20;;;;;;;18.92;40.42;97601.10;108234;1254;61552;-65
2023/03/12 02:02:28;;;;;;;2.90;2.30;;;;;;;19.26;39.83;97612.73;108190;1257;75278;-66
2023/03/12 02:05:10;;;;;;;2.60;1.80;;;;;;;19.20;39.66;97620.02;108174;1254;70675;-65
2023/03/12 02:07:39;;;;;;;3.60;2.00;;;;;;;19.06;39.51;97625.80;108187;1257;72266;-66
2023/03/12 02:10:11;;;;;;;2.70;2.20;;;;;;;18.99;39.37;97630.71;108262;1257;61773;-66
2023/03/12 02:12:40;;;;;;;2.70;1.80;;;;;;;19.33;38.72;97637.93;108291;1257;60387;-64
2023/03/12 02:15:09;;;;;;;2.80;1.90;;;;;;;19.58;38.23;97648.02;108236;1256;74935;-65
2023/03/12 02:17:39;;;;;;;1.80;1.60;;;;;;;19.36;38.23;97655.08;108294;1254;69896;-66
2023/03/12 02:20:22;;;;;;;2.40;1.70;;;;;;;19.20;38.27;97653.63;108197;1253;72645;-65
2023/03/12 02:22:55;;;;;;;1.70;1.60;;;;;;;18.90;38.53;97666.21;108260;1253;61175;-67
2023/03/12 02:25:37;;;;;;;2.00;1.60;;;;;;;19.06;38.19;97667.61;108117;1254;60522;-67
2023/03/12 02:28:08;;;;;;;2.10;1.70;;;;;;;19.00;38.04;97680.59;108201;1254;73574;-68
2023/03/12 02:30:41;;;;;;;3.30;1.80;;;;;;;18.98;37.83;97690.20;108225;1253;69573;-67
2023/03/12 02:33:24;;;;;;;3.90;1.70;;;;;;;18.37;38.39;97705.59;108196;1254;73668;-67
2023/03/12 02:35:53;;;;;;;3.10;1.50;;;;;;;18.34;37.85;97717.75;108148;1254;62164;-66
2023/03/12 02:38:39;;;;;;;2.10;1.70;;;;;;;17.99;37.90;97717.94;108269;1253;60947;-66
2023/03/12 02:41:31;;;;;;;1.50;1.30;;;;;;;17.95;37.78;97722.13;108198;1253;74655;-65
2023/03/12 02:44:24;;;;;;;3.10;1.70;;;;;;;18.00;37.70;97735.29;108285;1254;71322;-67
2023/03/12 02:46:54;;;;;;;3.20;1.70;;;;;;;18.14;37.16;97738.71;108136;1254;73496;-67
2023/03/12 02:49:25;;;;;;;4.20;1.80;;;;;;;18.14;37.04;97736.63;108206;1253;62493;-65
2023/03/12 02:51:53;;;;;;;3.60;1.90;;;;;;;17.89;37.19;97730.35;108224;1257;61316;-66
2023/03/12 02:54:21;;;;;;;2.20;1.80;;;;;;;18.18;36.57;97731.91;108240;1253;74814;-66
2023/03/12 02:56:50;;;;;;;2.00;1.80;;;;;;;18.17;36.58;97727.36;108255;1254;70557;-67
2023/03/12 02:59:20;;;;;;;3.60;2.40;;;;;;;17.81;36.87;97728.46;108220;1257;73881;-65
2023/03/12 03:01:57;;;;;;;4.40;1.80;;;;;;;18.04;36.45;97727.54;108101;1254;62178;-65
2023/03/12 03:04:27;;;;;;;3.50;2.30;;;;;;;17.78;36.60;97733.10;108126;1254;61531;-65
2023/03/12 03:06:55;;;;;;;3.60;2.30;;;;;;;17.57;36.79;97741.69;108202;1254;73295;-66
2023/03/12 03:09:24;;;;;;;3.30;2.20;;;;;;;17.14;37.45;97740.16;108167;1254;71540;-64
2023/03/12 03:11:53;;;;;;;3.10;2.20;;;;;;;17.25;37.37;97741.58;108170;1257;72859;-64
2023/03/12 03:14:23;;;;;;;2.60;2.20;;;;;;;17.48;36.95;97749.02;108259;1254;62214;-65
2023/03/12 03:16:52;;;;;;;2.60;2.40;;;;;;;17.17;36.88;97750.67;108160;1254;60405;-66
2023/03/12 03:19:22;;;;;;;2.80;2.50;;;;;;;16.87;37.13;97757.97;108168;1254;74058;-65
2023/03/12 03:21:53;;;;;;;3.20;2.60;;;;;;;17.04;36.60;97760.70;108204;1253;70866;-64
2023/03/12 03:24:24;;;;;;;3.30;2.70;;;;;;;17.11;36.08;97764.47;108343;1254;73905;-66
2023/03/12 03:26:53;;;;;;;;;;;;;;;16.64;36.28;97772.52;108145;1253;62425;-66
2023/03/12 03:29:21;;;;;;;5.70;3.00;;;;;;;16.53;36.37;97772.55;108166;1253;60329;-67
2023/03/12 03:31:50;;;;;;;3.80;3.10;;;;;;;16.58;36.18;97773.48;108039;1254;75059;-66
2023/03/12 03:34:19;;;;;;;3.60;3.10;;;;;;;16.62;36.22;97772.23;108060;1254;71652;-66
2023/03/12 03:36:47;;;;;;;3.90;2.90;;;;;;;16.71;36.25;97767.45;108185;1254;72907;-67
2023/03/12 03:39:16;;;;;;;3.90;3.10;;;;;;;16.62;36.49;97771.13;108091;1253;61638;-66
2023/03/12 03:41:46;;;;;;;5.70;3.20;;;;;;;16.19;36.97;97778.84;108133;1254;60533;-65
2023/03/12 03:44:15;;;;;;;5.40;3.30;;;;;;;16.16;37.22;97799.00;108058;1254;74057;-67
2023/03/12 03:46:44;;;;;;;4.10;3.40;;;;;;;16.09;37.29;97813.18;108042;1254;70076;-66
2023/03/12 03:49:12;;;;;;;3.60;3.30;;;;;;;16.39;36.58;97827.52;108053;1254;72918;-64
2023/03/12 03:51:41;;;;;;;4.00;3.50;;;;;;;16.39;36.08;97830.24;108127;1254;61860;-65
2023/03/12 03:54:10;;;;;;;5.40;4.00;;;;;;;16.15;36.33;97830.41;108083;1254;60319;-65
2023/03/12 03:56:40;;;;;;;4.50;3.50;;;;;;;16.20;36.34;97830.51;108106;1254;75057;-66
2023/03/12 03:59:12;;;;;;;4.80;3.70;;;;;;;15.96;36.49;97836.17;108090;1254;71264;-66
2023/03/12 04:01:42;;;;;;;5.30;3.80;;;;;;;15.23;37.86;97845.11;108137;1254;74373;-66
2023/03/12 04:04:10;;;;;;;4.30;3.10;;;;;;;15.65;37.52;97850.15;108127;1253;60622;-67
2023/03/12 04:06:41;;;;;;;3.70;3.10;;;;;;;15.99;36.88;97854.28;108177;1253;61224;-66
2023/03/12 04:09:09;;;;;;;4.90;3.20;;;;;;;15.99;36.70;97863.08;108139;1254;73292;-65
2023/03/12 04:11:39;;;;;;;4.60;3.50;;;;;;;15.72;37.02;97867.63;108154;1254;70000;-65
2023/03/12 04:14:08;;;;;;;5.60;3.90;;;;;;;16.09;36.67;97868.17;108125;1253;72898;-66
2023/03/12 04:16:44;;;;;;;5.40;3.60;;;;;;;15.81;37.05;97872.58;108146;1254;62182;-66
2023/03/12 04:19:13;;;;;;;4.50;3.50;;;;;;;15.63;37.39;97876.88;108178;1254;61053;-66
2023/03/12 04:21:42;;;;;;;5.00;3.40;;;;;;;15.71;37.45;97876.33;108151;1254;75066;-66
2023/03/12 04:24:14;;;;;;;4.60;3.40;;;;;;;15.79;37.25;97887.30;108156;1254;71151;-67
2023/03/12 04:26:44;;;;;;;4.50;3.20;;;;;;;16.10;36.73;97888.44;108135;1253;73469;-67
2023/03/12 04:29:14;;;;;;;4.50;3.40;;;;;;;15.72;37.22;97900.47;108297;1253;62118;-66
2023/03/12 04:31:43;;;;;;;6.10;4.10;;;;;;;15.72;37.15;97907.98;108130;1253;60562;-66
2023/03/12 04:34:11;;;;;;;5.80;4.20;;;;;;;15.56;37.36;97912.29;108295;1254;74422;-67
2023/03/12 04:36:44;;;;;;;6.00;4.10;;;;;;;15.78;36.93;97912.50;108219;1253;71564;-65
2023/03/12 04:39:19;;;;;;;5.80;3.50;;;;;;;16.01;36.46;97919.41;108299;1254;72175;-65
2023/03/12 04:41:53;;;;;;;7.10;4.30;;;;;;;15.95;36.48;97919.76;108538;1254;61069;-65
2023/03/12 04:44:23;;;;;;;10.90;4.00;;;;;;;16.02;36.23;97926.56;108285;1253;59796;-66
2023/03/12 04:46:54;;;;;;;8.90;4.90;;;;;;;15.58;36.78;97932.61;108223;1254;73766;-67
2023/03/12 04:49:24;;;;;;;7.50;5.00;;;;;;;15.29;37.40;97938.55;108272;1254;71863;-66
2023/03/12 04:51:54;;;;;;;6.20;4.30;;;;;;;15.68;36.63;97941.88;108306;1254;72691;-66
2023/03/12 04:54:23;;;;;;;8.00;4.40;;;;;;;15.40;36.97;97948.71;108289;1254;61486;-66
2023/03/12 04:56:52;;;;;;;7.10;5.20;;;;;;;15.33;37.01;97944.27;108156;1254;60290;-67
2023/03/12 04:59:25;;;;;;;6.20;4.50;;;;;;;14.94;37.65;97957.59;108237;1253;74790;-67
2023/03/12 05:01:54;;;;;;;6.50;4.90;;;;;;;14.69;38.03;97962.16;108364;1253;70699;-65
2023/03/12 05:04:25;;;;;;;7.90;4.90;;;;;;;14.67;38.14;97969.05;108293;1254;72787;-65
2023/03/12 05:06:54;;;;;;;9.30;5.20;;;;;;;14.36;38.52;97978.61;108269;1256;62050;-66
2023/03/12 05:09:22;;;;;;;6.30;5.10;;;;;;;13.54;39.77;97993.75;108414;1254;61747;-66
2023/03/12 05:11:51;;;;;;;6.70;5.00;;;;;;;13.28;40.51;97999.69;108294;1254;75189;-67
2023/03/12 05:14:21;;;;;;;6.50;4.80;;;;;;;13.39;40.48;98009.32;108264;1254;70600;-66
2023/03/12 05:16:49;;;;;;;8.90;5.20;;;;;;;13.34;40.53;98009.59;108188;1252;73898;-64
2023/03/12 05:19:18;;;;;;;7.00;5.00;;;;;;;13.65;40.06;98010.88;108288;1254;61488;-66
2023/03/12 05:21:46;;;;;;;7.70;5.40;;;;;;;13.95;39.76;98013.32;108177;1257;60248;-67
2023/03/12 05:24:15;;;;;;;7.20;4.90;;;;;;;14.25;39.25;98016.44;108269;1254;73318;-66
2023/03/12 05:26:44;;;;;;;7.10;5.30;;;;;;;14.23;39.29;98027.94;108246;1254;70180;-66
2023/03/12 05:29:17;;;;;;;6.30;4.80;;;;;;;14.15;39.43;98033.70;108144;1254;71783;-66
2023/03/12 05:31:46;;;;;;;7.40;5.10;;;;;;;14.31;39.07;98044.33;108156;1254;62430;-66
2023/03/12 05:34:15;;;;;;;9.10;4.80;;;;;;;14.56;38.63;98052.23;108169;1253;60457;-67
2023/03/12 05:36:45;;;;;;;6.70;4.80;;;;;;;15.06;37.70;98058.00;108173;1254;74089;-67
2023/03/12 05:39:16;;;;;;;6.40;4.60;;;;;;;15.10;37.30;98070.05;108135;1254;68627;-65
2023/03/12 05:41:44;;;;;;;6.90;5.30;;;;;;;14.95;37.45;98076.09;108168;1253;72587;-67
2023/03/12 05:44:16;;;;;;;7.00;4.90;;;;;;;14.76;37.79;98087.16;108040;1253;62407;-67
2023/03/12 05:46:48;;;;;;;7.50;5.10;;;;;;;14.46;38.14;98091.79;108141;1253;60389;-65
2023/03/12 05:49:17;;;;;;;6.80;4.90;;;;;;;14.17;38.56;98100.44;108140;1253;74216;-65
2023/03/12 05:51:46;;;;;;;6.40;4.80;;;;;;;14.57;38.03;98107.14;108112;1253;71228;-67
2023/03/12 05:54:15;;;;;;;6.80;4.60;;;;;;;14.91;37.53;98113.56;108012;1254;73018;-68
2023/03/12 05:56:45;;;;;;;5.10;4.30;;;;;;;15.21;36.86;98122.44;108069;1253;61881;-65
2023/03/12 05:59:13;;;;;;;8.00;4.80;;;;;;;15.05;36.71;98126.47;108118;1253;60584;-66
2023/03/12 06:01:42;;;;;;;6.50;4.80;;;;;;;15.17;36.48;98129.48;108015;1259;74867;-67
2023/03/12 06:04:10;;;;;;;7.20;5.00;;;;;;;15.27;36.32;98136.60;108113;1254;70415;-66
2023/03/12 06:06:39;;;;;;;7.60;5.20;;;;;;;15.19;36.54;98143.63;108100;1253;73887;-65
2023/03/12 06:09:08;;;;;;;7.90;4.90;;;;;;;15.05;36.60;98146.12;108135;1253;62399;-64
2023/03/12 06:11:36;;;;;;;7.40;5.00;;;;;;;15.17;36.44;98154.09;108125;1256;60738;-66
2023/03/12 06:14:05;;;;;;;6.10;4.70;;;;;;;14.91;36.74;98165.90;108098;1253;73876;-67
2023/03/12 06:16:35;;;;;;;7.60;5.30;;;;;;;15.38;36.15;98170.85;108094;1253;70805;-67
2023/03/12 06:19:04;;;;;;;6.90;4.70;;;;;;;15.11;36.39;98175.65;108138;1254;73760;-65
2023/03/12 06:21:39;;;;;;;5.80;4.50;;;;;;;14.47;37.22;98189.67;108141;1254;61249;-66
2023/03/12 06:24:08;;;;;;;8.40;4.80;;;;;;;14.68;37.01;98194.83;108150;1253;61227;-67
2023/03/12 06:26:51;;;;;;;5.40;4.30;;;;;;;14.78;36.84;98202.28;108089;1254;74282;-65
2023/03/12 06:29:19;;;;;;;5.50;4.10;;;;;;;14.88;36.58;98208.02;108260;1254;70870;-64
2023/03/12 06:31:50;;;;;;;5.70;3.80;;;;;;;14.47;37.27;98219.03;108103;1253;72754;-66
2023/03/12 06:34:22;;;;;;;4.50;3.90;;;;;;;14.35;37.39;98222.66;108212;1254;61083;-65
2023/03/12 06:36:52;;;;;;;5.20;3.90;;;;;;;14.18;37.83;98235.77;108262;1253;61178;-67
2023/03/12 06:39:20;;;;;;;6.00;3.80;;;;;;;14.16;37.90;98239.41;108297;1253;73988;-67
2023/03/12 06:41:48;;;;;;;4.40;3.60;;;;;;;14.36;37.67;98246.95;108335;1253;71319;-67
2023/03/12 06:44:17;;;;;;;4.60;3.70;;;;;;;13.92;38.11;98254.38;108280;1252;73932;-67
2023/03/12 06:46:46;;;;;;;5.70;3.80;;;;;;;13.91;38.31;98259.45;108228;1253;62208;-68
2023/03/12 06:49:15;;;;;;;8.10;4.30;;;;;;;14.49;37.48;98260.86;108300;1252;60338;-67
2023/03/12 06:51:43;;;;;;;5.80;4.10;;;;;;;14.87;36.85;98271.30;108308;1252;74804;-68
2023/03/12 06:54:11;;;;;;;4.30;3.50;;;;;;;15.06;36.56;98278.20;108199;1257;70790;-66
2023/03/12 06:56:40;;;;;;;4.30;3.60;;;;;;;14.48;37.27;98284.78;108240;1253;73854;-67
2023/03/12 06:59:09;;;;;;;5.60;3.50;;;;;;;14.69;37.02;98293.88;108221;1252;62390;-67
2023/03/12 07:01:37;;;;;;;6.60;3.70;;;;;;;14.46;37.34;98305.08;108306;1254;61321;-67
2023/03/12 07:04:05;;;;;;;5.90;3.50;;;;;;;14.15;37.77;98314.79;108310;1252;74027;-69
2023/03/12 07:06:34;;;;;;;4.20;3.40;;;;;;;13.96;38.17;98326.77;108319;1252;71255;-66
2023/03/12 07:09:05;;;;;;;4.90;3.50;;;;;;;14.08;38.13;98333.20;108276;1253;71693;-66
2023/03/12 07:11:35;;;;;;;4.40;3.50;;;;;;;14.13;38.07;98332.48;108307;1252;62430;-66
2023/03/12 07:14:06;;;;;;;6.30;3.60;;;;;;;14.55;37.36;98341.98;108325;1253;60483;-65
2023/03/12 07:16:35;;;;;;;4.60;3.20;;;;;;;14.68;37.24;98348.35;108278;1252;73567;-66
2023/03/12 07:19:04;;;;;;;5.60;3.40;;;;;;;14.56;37.31;98352.81;108249;1253;69721;-68
2023/03/12 07:21:33;;;;;;;4.70;2.90;;;;;;;14.58;37.50;98365.38;108093;1252;73735;-67
2023/03/12 07:24:08;;;;;;;4.00;3.20;;;;;;;14.81;37.22;98372.34;108201;1252;62101;-66
2023/03/12 07:26:36;;;;;;;4.10;3.10;;;;;;;15.16;36.62;98381.48;108260;1253;60329;-67
2023/03/12 07:29:04;;;;;;;3.90;3.00;;;;;;;15.25;36.45;98388.82;108195;1253;73419;-67
2023/03/12 07:31:35;;;;;;;4.00;2.80;;;;;;;14.76;36.79;98397.33;108309;1253;71304;-68
2023/03/12 07:34:04;;;;;;;3.90;2.40;;;;;;;14.96;36.68;98402.62;108239;1253;71133;-68
2023/03/12 07:36:35;;;;;;;3.50;2.60;;;;;;;14.69;36.98;98412.91;108315;1252;62182;-67
2023/03/12 07:39:04;;;;;;;4.40;2.70;;;;;;;15.05;36.54;98418.66;108338;1253;61124;-66
2023/03/12 07:41:36;;;;;;;4.20;2.70;;;;;;;15.24;36.23;98423.39;108248;1253;75213;-67
2023/03/12 07:44:05;;;;;;;4.80;2.60;;;;;;;14.82;36.59;98430.57;108415;1253;70148;-67
2023/03/12 07:46:34;;;;;;;3.50;2.40;;;;;;;14.76;36.69;98437.20;108308;1253;72695;-67
2023/03/12 07:49:03;;;;;;;3.90;2.20;;;;;;;14.78;36.58;98443.42;108253;1256;61921;-67
2023/03/12 07:51:32;;;;;;;3.50;2.20;;;;;;;14.42;37.03;98455.65;108173;1252;61532;-65
2023/03/12 07:56:16;;;;;;;4.10;2.50;;;;;;;10.75;43.79;98482.13;105345;1288;600461;-68
2023/03/12 07:58:45;;;;;;;3.70;2.20;;;;;;;12.75;40.27;98479.70;107305;1264;62238;-67
2023/03/12 08:01:14;;;;;;;4.40;2.30;;;;;;;13.18;39.53;98487.88;107370;1264;61544;-66
2023/03/12 08:03:43;;;;;;;3.40;2.50;;;;;;;13.45;38.98;98498.75;107289;1264;73201;-67
2023/03/12 08:06:15;;;;;;;4.30;2.60;;;;;;;13.07;39.25;98506.25;107292;1267;70903;-66
2023/03/12 08:08:46;;;;;;;7.00;2.50;;;;;;;13.22;39.02;98511.19;107187;1267;196334;-67
2023/03/12 08:11:15;;;;;;;3.50;2.20;;;;;;;13.75;38.34;98517.70;107309;1264;60095;-67
2023/03/12 08:13:48;;;;;;;4.40;2.30;;;;;;;14.03;37.85;98524.52;107292;1264;61113;-67
2023/03/12 08:16:17;;;;;;;3.50;2.50;;;;;;;13.99;38.03;98526.26;107357;1264;71873;-63
2023/03/12 08:18:45;;;;;;;4.20;2.60;;;;;;;14.31;37.88;98535.77;107392;1263;70692;-64
2023/03/12 08:21:15;;;;;;;3.40;2.40;;;;;;;14.51;37.55;98533.73;107346;1264;73566;-67
2023/03/12 08:23:44;;;;;;;3.10;2.50;;;;;;;14.54;37.43;98538.23;107322;1264;61363;-64
2023/03/12 08:26:14;;;;;;;5.00;2.50;;;;;;;14.74;37.49;98541.80;107378;1267;59828;-68
2023/03/12 08:28:45;;;;;;;3.30;2.40;;;;;;;14.95;36.77;98539.78;107389;1264;72353;-67
2023/03/12 08:31:14;;;;;;;2.40;2.10;;;;;;;15.28;35.86;98541.14;107319;1263;70236;-66
2023/03/12 08:33:45;;;;;;;4.30;2.20;;;;;;;15.96;34.65;98542.16;107338;1264;73508;-66
2023/03/12 08:36:14;;;;;;;3.00;2.00;;;;;;;16.44;34.03;98545.09;107336;1264;62451;-67
2023/03/12 08:38:46;;;;;;;4.80;2.10;;;;;;;16.78;32.63;98547.34;107358;1264;60457;-65
2023/03/12 08:41:17;;;;;;;3.80;1.90;;;;;;;16.75;32.30;98562.85;107385;1264;74224;-68
2023/03/12 08:43:46;;;;;;;3.40;1.90;;;;;;;16.76;31.98;98565.61;107552;1261;70321;-68
2023/03/12 08:46:14;;;;;;;3.30;1.90;;;;;;;16.62;32.05;98577.90;107579;1259;73976;-66
2023/03/12 08:48:43;;;;;;;3.00;1.70;;;;;;;16.62;32.03;98581.82;107648;1259;61967;-66
2023/03/12 08:51:11;;;;;;;2.50;1.90;;;;;;;16.71;31.30;98587.40;107567;1260;61134;-66
2023/03/12 08:53:44;;;;;;;3.80;1.70;;;;;;;16.74;31.57;98597.41;107545;1260;73501;-67
2023/03/12 08:56:16;;;;;;;3.30;1.70;;;;;;;16.24;32.06;98600.64;107602;1259;71435;-67
2023/03/12 08:58:47;;;;;;;3.10;1.70;;;;;;;15.67;32.49;98613.85;107613;1259;71919;-68
2023/03/12 09:01:15;;;;;;;2.50;1.60;;;;;;;15.50;32.62;98617.02;108157;1253;60617;-67
2023/03/12 09:03:48;;;;;;;3.50;1.80;;;;;;;15.47;32.31;98619.92;108162;1253;61191;-66
2023/03/12 09:06:18;;;;;;;3.40;2.10;;;;;;;15.61;32.21;98633.33;108149;1253;73946;-67
2023/03/12 09:08:50;;;;;;;5.60;1.80;;;;;;;15.50;32.56;98637.88;108074;1259;71086;-67
2023/03/12 09:11:18;;;;;;;5.00;1.90;;;;;;;15.66;31.74;98639.44;108109;1254;72638;-67
2023/03/12 09:13:46;;;;;;;1.60;1.40;;;;;;;15.83;31.40;98646.89;108124;1253;60477;-68
2023/03/12 09:16:37;;;;;;;;;;;;;;;15.91;31.20;98647.34;108047;1253;61267;-66
2023/03/12 09:19:06;;;;;;;2.70;1.70;;;;;;;15.77;30.96;98656.92;108081;1253;73338;-66
2023/03/12 09:21:36;;;;;;;4.50;1.90;;;;;;;15.76;31.06;98663.42;108098;1253;71323;-66
2023/03/12 09:24:09;;;;;;;5.40;1.80;;;;;;;16.04;31.03;98669.23;108109;1253;73608;-67
2023/03/12 09:26:37;;;;;;;2.70;1.70;;;;;;;16.24;30.56;98676.58;108143;1254;62362;-67
2023/03/12 09:29:07;;;;;;;3.40;2.00;;;;;;;16.88;30.36;98679.18;108002;1254;59379;-65
2023/03/12 09:31:35;;;;;;;2.90;1.70;;;;;;;17.01;29.98;98679.10;108024;1254;74335;-67
2023/03/12 09:34:06;;;;;;;3.00;1.70;;;;;;;17.37;29.77;98689.84;107968;1253;69784;-67
2023/03/12 09:36:36;;;;;;;5.30;1.80;;;;;;;17.85;29.25;98697.86;107980;1254;73943;-67
2023/03/12 09:39:05;;;;;;;2.60;1.40;;;;;;;18.20;28.25;98699.17;108027;1254;61607;-67
2023/03/12 09:41:36;;;;;;;3.90;1.70;;;;;;;17.90;28.44;98709.13;108039;1254;60775;-66
2023/03/12 09:44:28;;;;;;;2.30;1.30;;;;;;;17.90;28.31;98717.65;107973;1254;74249;-66
2023/03/12 09:47:01;;;;;;;3.90;1.80;;;;;;;17.84;28.40;98727.76;108064;1254;71030;-67
2023/03/12 09:49:39;;;;;;;3.50;1.70;;;;;;;17.71;28.78;98730.08;108029;1254;73011;-65
2023/03/12 09:52:22;;;;;;;5.90;1.70;;;;;;;17.66;28.63;98741.59;107992;1254;59637;-66
2023/03/12 09:54:56;;;;;;;4.20;1.60;;;;;;;17.52;28.75;98751.14;108000;1254;61341;-67
2023/03/12 09:57:25;;;;;;;2.30;1.40;;;;;;;17.30;28.84;98759.64;108022;1254;74025;-68
2023/03/12 09:59:53;;;;;;;5.70;2.40;;;;;;;17.11;28.36;98764.29;107982;1254;71583;-68
2023/03/12 10:02:59;;;;;;;3.70;1.70;;;;;;;16.77;28.46;98772.62;107928;1254;72752;-67
2023/03/12 10:05:35;;;;;;;2.20;1.50;;;;;;;16.93;29.31;98776.83;108036;1254;59532;-68
2023/03/12 10:08:15;;;;;;;5.10;1.70;;;;;;;16.90;28.68;98782.16;108060;1254;61166;-68
2023/03/12 10:11:05;;;;;;;2.90;1.70;;;;;;;17.30;27.99;98788.92;108115;1257;72266;-68
2023/03/12 10:13:43;;;;;;;6.10;2.20;;;;;;;16.96;27.91;98789.61;108203;1253;71135;-66
2023/03/12 10:16:26;;;;;;;3.00;1.60;;;;;;;17.44;27.71;98801.04;108076;1253;73556;-67
2023/03/12 10:19:19;;;;;;;4.20;1.80;;;;;;;17.86;27.25;98803.77;108155;1253;60089;-68
2023/03/12 10:22:29;;;;;;;4.30;2.00;;;;;;;18.05;27.38;98816.06;108172;1253;61362;-68
2023/03/12 10:25:24;;;;;;;2.60;1.40;;;;;;;18.17;26.89;98819.35;108132;1253;72231;-67
2023/03/12 10:27:53;;;;;;;4.70;1.70;;;;;;;17.25;27.55;98830.99;108291;1253;71582;-67
2023/03/12 10:30:25;;;;;;;3.90;1.60;;;;;;;17.33;27.90;98835.28;108203;1253;72738;-67
2023/03/12 10:33:03;;;;;;;4.60;1.80;;;;;;;17.76;27.97;98836.56;108310;1253;59055;-67
2023/03/12 10:35:31;;;;;;;3.60;1.60;;;;;;;18.50;28.01;98834.27;108226;1256;61584;-68
2023/03/12 10:38:00;;;;;;;3.20;1.70;;;;;;;18.97;27.61;98835.20;108440;1252;74322;-66
2023/03/12 10:40:33;;;;;;;2.70;1.70;;;;;;;19.49;26.62;98831.05;108377;1252;71154;-67
2023/03/12 10:43:05;;;;;;;3.30;1.60;;;;;;;19.81;25.98;98830.19;108314;1256;73413;-68
2023/03/12 10:46:09;;;;;;;4.10;1.40;;;;;;;20.25;26.00;98831.77;108142;1253;59720;-68
2023/03/12 10:48:38;;;;;;;3.40;1.70;;;;;;;20.43;25.24;98830.02;108244;1252;59920;-66
2023/03/12 10:51:07;;;;;;;3.10;1.70;;;;;;;19.47;24.89;98833.02;108091;1258;73063;-66
2023/03/12 10:53:37;;;;;;;3.00;1.50;;;;;;;18.87;25.92;98830.20;108179;1253;71205;-67
2023/03/12 10:56:13;;;;;;;6.10;1.80;;;;;;;19.15;26.32;98823.70;108291;1253;71901;-65
2023/03/12 10:58:46;;;;;;;2.90;1.50;;;;;;;19.58;25.83;98822.70;108261;1252;59752;-66
2023/03/12 11:01:25;;;;;;;3.60;1.70;;;;;;;19.63;25.93;98832.17;108283;1253;61715;-67
2023/03/12 11:04:13;;;;;;;3.60;1.50;;;;;;;19.62;25.45;98836.09;108334;1253;72837;-68
2023/03/12 11:06:41;;;;;;;2.20;1.40;;;;;;;19.30;25.35;98830.34;108283;1253;70354;-68
2023/03/12 11:09:17;;;;;;;5.00;1.70;;;;;;;19.47;25.53;98840.00;108208;1253;72956;-68
2023/03/12 11:11:46;;;;;;;2.70;1.40;;;;;;;19.51;25.92;98838.66;108274;1252;60592;-67
2023/03/12 11:14:19;;;;;;;2.70;1.70;;;;;;;19.25;25.88;98845.67;108319;1253;60556;-67
2023/03/12 11:16:48;;;;;;;3.30;2.00;;;;;;;18.81;25.96;98851.23;108290;1253;72502;-66
2023/03/12 11:19:27;;;;;;;3.70;1.90;;;;;;;18.45;26.27;98854.67;108287;1252;69817;-66
2023/03/12 11:22:07;;;;;;;2.70;1.90;;;;;;;18.55;26.30;98859.45;108310;1253;73033;-67
2023/03/12 11:24:35;;;;;;;3.50;2.20;;;;;;;18.65;26.49;98867.59;108144;1251;60491;-67
2023/03/12 11:27:09;;;;;;;4.90;2.10;;;;;;;18.51;27.17;98878.30;108290;1252;60330;-68
2023/03/12 11:29:43;;;;;;;3.00;1.80;;;;;;;18.66;26.85;98880.86;108183;1253;74243;-69
2023/03/12 11:32:31;;;;;;;4.40;2.30;;;;;;;18.90;26.84;98882.20;108185;1253;71247;-66
2023/03/12 11:34:59;;;;;;;4.00;1.70;;;;;;;19.11;26.19;98887.92;107984;1253;72007;-68
2023/03/12 11:37:59;;;;;;;4.50;1.50;;;;;;;19.56;25.54;98892.84;108178;1253;59335;-67
2023/03/12 11:40:58;;;;;;;3.20;1.60;;;;;;;19.29;25.66;98895.73;108154;1253;61539;-67
2023/03/12 11:44:05;;;;;;;3.30;1.60;;;;;;;18.99;25.75;98892.46;108184;1253;72348;-68
2023/03/12 11:46:43;;;;;;;4.00;1.80;;;;;;;19.08;25.70;98894.26;108154;1253;69683;-67
2023/03/12 11:49:30;;;;;;;5.10;2.20;;;;;;;19.41;25.72;98898.02;108164;1253;73590;-68